Port Aransas, TX (78373)

06:12 AM CDT del 29 Marzo 2017 (GMT -0500)
AB5KT - Island RV Resort | | Change Station

Alt. 10 ft 27.83 °N, 97.07 °W | Updated 5 seconds ago

Scattered Clouds
Nubi sparse
72.3 °F
Sembra 72.3 °F
N
0.9
Vento Variabile Vento da OSO
Gusts 2.0 mph

Oggi
Massima -- | Minima -- °F
--% Possibilità di precip.
Ieri
Massima -- | Minima -- °F
Precip. -- in
Pressione 29.70 in
Visibilità 5.0 miglia
Nuvole Nubi sparse 2300 ft
Punto di rugiada 70 °F
Umidità 91%
Piovosità 0.00 in
Spessore del manto nevoso Non disponibile.
7:21 AM 7:44 PM
Luna crescente, 3% visible
METAR KRAS 291055Z AUTO 15004KT 5SM BR SCT023 22/21 A2970 RMK AO2 T02240205
Pressione 29.70 in
Visibilità 5.0 miglia
Nuvole Nubi sparse 2300 ft
Punto di rugiada 70 °F
Umidità 91%
Piovosità 0.00 in
Spessore del manto nevoso Non disponibile.
7:21 AM 7:44 PM
Luna crescente, 3% visible
METAR KRAS 291055Z AUTO 15004KT 5SM BR SCT023 22/21 A2970 RMK AO2 T02240205

Get Severe Weather Alerts

Thanks for signing up!

Be on the lookout for a verification email in your inbox.

You'll start receiving the daily forecast at 8 AM.

×

10-Day Weather Forecast

Almanac

Astronomia

Mar. 29, 2017 Alba Tramonto
Ora attuale
Crepuscolo civile
Crepuscolo nautico
Crepuscolo astronomico
Luna
Estensione della luce visibile
Lunghezza del giorno
Tomorrow will be .
, % of the Moon is Illuminated

Gli estremi di oggi

State Highs State Lows

Community

WunderPhotos

Upload Photos

1,962,540 foto caricate!

WunderBlog® & News

Nearby

Qualità dell'aria

  Qualità dell'aria Indice AQ Inquinante
Not available.

Profondità neve

Stazione Profondità Altitudine

Attività sismica

Città  Distanza Mag. Data & Ora
Minimo Magnitudo Mostrato è 2.5.

Attività sismica

Città  Distanza Mag. Data & Ora
Minimo Magnitudo Mostrato è 2.5.

Temperature delle acque costiere

Località Temperatura

Stations

Stazioni meteo nelle vicinanze

Ubicazione della stazione Temp. Raffreddamento del vento Punto di rugiada Umidità Vento Precip. Alt. Aggiornato Tipo
                   

Watches & Warnings

There are currently no watches in effect.